EW1198 Weather Reports


Display with metric or nautical units.
time (UTC)temp
F
wind
direction
speed
MPH
gust
MPH
rain 1hr
in
rain 24hr
in
rain mn
in
humidity
%
barometer
mb
20260504201804 70 340 1.0 5.0 0.00 0.01 0.00 56 1005.3
20260504201304 70 84 1.0 5.0 0.00 0.01 0.00 56 1005.1
20260504200805 70 326 0.0 6.0 0.00 0.01 0.00 57 1004.8
20260504195803 69 328 1.0 8.0 0.00 0.01 0.00 57 1004.9
20260504194804 69 353 1.0 6.0 0.00 0.01 0.00 58 1004.8
20260504194303 69 171 0.0 3.0 0.00 0.01 0.00 59 1004.8
20260504193804 69 342 0.0 7.0 0.00 0.01 0.00 60 1004.9
20260504192804 68 42 1.0 5.0 0.00 0.01 0.00 62 1005.2
20260504191803 69 350 1.0 9.0 0.00 0.01 0.00 55 1005.3
20260504191304 70 320 1.0 14.0 0.00 0.01 0.00 55 1005.7
20260504190804 71 66 2.0 15.0 0.00 0.01 0.00 54 1005.9
20260504190304 71 272 0.0 14.0 0.00 0.01 0.00 55 1005.9
20260504185803 71 294 2.0 12.0 0.00 0.01 0.00 54 1005.9
20260504185304 72 287 1.0 3.0 0.00 0.01 0.00 53 1005.7
20260504184804 72 344 1.0 6.0 0.00 0.01 0.00 54 1005.7
20260504184304 71 285 0.0 5.0 0.00 0.01 0.00 54 1005.9
20260504183804 71 305 1.0 3.0 0.00 0.01 0.00 53 1005.6
20260504183303 72 327 1.0 5.0 0.00 0.01 0.00 52 1005.3
20260504182804 72 141 0.0 3.0 0.00 0.01 0.00 53 1005.5
20260504181803 71 4 0.0 3.0 0.00 0.01 0.00 53 1005.4
20260504181304 72 229 2.0 15.0 0.00 0.01 0.00 52 1005.6
20260504180804 72 291 1.0 7.0 0.00 0.01 0.00 52 1005.2
20260504180303 72 171 1.0 5.0 0.00 0.01 0.00 53 1005.0
20260504175804 71 296 1.0 5.0 0.00 0.01 0.00 52 1005.1
20260504175304 71 321 1.0 6.0 0.00 0.01 0.00 53 1005.3
20260504174804 71 356 1.0 10.0 0.00 0.01 0.00 52 1005.2
20260504174304 71 289 1.0 5.0 0.00 0.01 0.00 52 1005.1
20260504173804 71 310 1.0 5.0 0.00 0.01 0.00 52 1005.1
20260504173304 72 295 2.0 8.0 0.00 0.01 0.00 51 1005.3
20260504172804 72 326 0.0 9.0 0.00 0.01 0.00 51 1005.3
20260504172304 71 329 1.0 3.0 0.00 0.01 0.00 51 1005.4
20260504171804 71 349 1.0 3.0 0.00 0.01 0.00 51 1005.4
20260504171304 72 25 1.0 12.0 0.00 0.01 0.00 51 1005.3
20260504170304 72 130 0.0 3.0 0.00 0.01 0.00 51 1005.4
20260504160304 69 332 0.0 3.0 0.00 0.01 0.00 55 1005.9
20260504150804 66 51 0.0 2.0 0.00 0.01 0.00 57 1006.3
20260504150305 66 315 1.0 7.0 0.00 0.01 0.00 58 1006.3
20260504141304 62 356 1.0 5.0 0.00 0.01 0.00 60 1006.8
20260504140805 62 339 1.0 3.0 0.00 0.01 0.00 61 1006.8
20260504140304 62 318 1.0 5.0 0.00 0.01 0.00 62 1006.9
20260504130803 58 28 0.0 2.0 0.00 0.01 0.00 63 1007.3
20260504130304 58 355 0.0 3.0 0.00 0.01 0.00 63 1007.1
20260504120304 55 146 0.0 1.0 0.00 0.01 0.00 65 1007.1
20260504110304 52 180 0.0 1.0 0.00 0.01 0.00 68 1006.9
20260504100304 52 151 0.0 0.0 0.00 0.01 0.00 66 1007.5
20260504080803 53 359 0.0 0.0 0.00 0.01 0.00 62 1008.0
20260504080304 53 176 0.0 0.0 0.00 0.01 0.00 62 1008.0
20260504070304 54 8 0.0 0.0 0.00 0.01 0.00 60 1008.5
20260504050304 56 353 0.0 1.0 0.00 0.01 0.00 56 1009.6
20260504045803 56 42 0.0 1.0 0.00 0.01 0.00 56 1009.7
20260504044804 56 173 0.0 1.0 0.00 0.01 0.00 56 1009.7
20260504044303 56 114 0.0 1.0 0.00 0.01 0.00 56 1009.7
20260504043303 56 11 0.0 1.0 0.00 0.01 0.00 55 1009.8
20260504041804 56 80 0.0 2.0 0.00 0.01 0.00 55 1010.0
20260504041304 56 265 0.0 1.0 0.00 0.01 0.00 56 1010.0
20260504040804 56 170 0.0 0.0 0.00 0.01 0.00 56 1010.1
20260504040304 56 25 0.0 1.0 0.00 0.01 0.00 57 1010.1
20260504035804 56 0 0.0 0.0 0.00 0.01 0.01 57 1010.0
20260504034804 55 359 0.0 0.0 0.00 0.01 0.01 58 1010.2
20260504033803 55 154 0.0 0.0 0.00 0.01 0.01 59 1010.3
20260504033303 55 176 0.0 0.0 0.00 0.01 0.01 60 1010.3
20260504031804 54 98 0.0 0.0 0.00 0.01 0.01 64 1010.4
20260504030804 54 98 0.0 0.0 0.00 0.01 0.01 65 1010.5
20260504025803 54 98 0.0 0.0 0.00 0.01 0.01 65 1010.7
20260504025304 54 98 0.0 1.0 0.00 0.01 0.01 65 1010.7
20260504024804 54 98 0.0 0.0 0.00 0.01 0.01 65 1010.7
20260504024303 54 98 0.0 0.0 0.00 0.01 0.01 65 1010.7
20260504023804 54 98 0.0 0.0 0.00 0.01 0.01 65 1010.8
20260504023304 54 98 0.0 0.0 0.00 0.01 0.01 66 1010.8
20260504022304 54 98 0.0 0.0 0.00 0.01 0.01 66 1010.7
20260504021804 54 97 0.0 0.0 0.00 0.01 0.01 66 1010.8
20260504020804 54 98 0.0 0.0 0.00 0.01 0.01 66 1010.8
20260504015804 53 97 0.0 0.0 0.00 0.01 0.01 66 1010.9
20260504015304 53 97 0.0 0.0 0.00 0.01 0.01 66 1010.8
20260504014804 53 97 0.0 0.0 0.00 0.01 0.01 66 1010.9
20260504014304 53 97 0.0 0.0 0.00 0.01 0.01 66 1010.8
20260504013304 53 97 0.0 0.0 0.00 0.01 0.01 66 1010.8
20260504012803 53 97 0.0 0.0 0.00 0.01 0.01 66 1010.7
20260504012304 53 97 0.0 0.0 0.00 0.01 0.01 66 1010.7
20260504011303 53 97 0.0 0.0 0.00 0.01 0.01 67 1010.9
20260504010803 53 96 0.0 0.0 0.00 0.01 0.01 67 1010.8
20260504010303 53 96 0.0 0.0 0.00 0.01 0.01 67 1010.9
20260504005803 53 98 0.0 0.0 0.00 0.01 0.01 67 1010.9
20260504005304 53 98 0.0 0.0 0.00 0.01 0.01 67 1010.9
20260504004804 53 97 0.0 0.0 0.00 0.01 0.01 67 1010.8
20260504004303 53 97 0.0 0.0 0.00 0.01 0.01 67 1010.7
20260504003804 53 97 0.0 0.0 0.00 0.01 0.01 66 1010.7
20260504003304 53 97 0.0 0.0 0.00 0.01 0.01 66 1010.8
20260504002304 53 103 0.0 0.0 0.00 0.01 0.01 66 1010.8
20260504001804 53 103 0.0 0.0 0.00 0.01 0.01 66 1010.7
20260504001304 53 103 0.0 0.0 0.00 0.01 0.01 66 1010.9
20260504000803 53 82 0.0 0.0 0.00 0.01 0.01 66 1010.9
20260503235803 53 82 0.0 0.0 0.00 0.01 0.01 66 1010.8
20260503234804 53 74 0.0 0.0 0.00 0.01 0.01 66 1010.9
20260503234304 53 82 0.0 0.0 0.00 0.01 0.01 67 1010.7
20260503233304 53 82 0.0 0.0 0.00 0.01 0.01 67 1010.7
20260503232804 53 92 0.0 0.0 0.00 0.01 0.01 67 1010.7
20260503231804 53 113 0.0 0.0 0.00 0.01 0.01 68 1010.7
20260503231304 53 86 0.0 0.0 0.00 0.01 0.01 68 1010.9
20260503230804 53 103 0.0 0.0 0.00 0.01 0.01 68 1011.1
20260503230304 53 77 0.0 0.0 0.00 0.01 0.01 69 1011.4
20260503225804 53 84 0.0 0.0 0.00 0.01 0.01 69 1011.4
20260503225305 53 81 0.0 0.0 0.00 0.01 0.01 70 1011.6
20260503224804 53 96 0.0 0.0 0.00 0.01 0.01 69 1011.7
20260503224303 53 88 0.0 0.0 0.00 0.01 0.01 69 1012.0
20260503223804 53 65 0.0 0.0 0.00 0.01 0.01 70 1011.9
20260503223305 53 67 0.0 0.0 0.00 0.01 0.01 69 1012.0
20260503222304 53 52 0.0 0.0 0.01 0.01 0.01 69 1012.3
20260503221804 53 61 0.0 0.0 0.01 0.01 0.01 68 1012.4
20260503221303 53 42 0.0 0.0 0.01 0.01 0.01 70 1012.5
20260503220304 52 42 0.0 0.0 0.01 0.01 0.01 69 1012.5
20260503215804 52 42 0.0 0.0 0.01 0.01 0.01 69 1012.6
20260503215304 52 42 0.0 0.0 0.01 0.01 0.01 70 1012.4
20260503214804 52 5 0.0 0.0 0.01 0.01 0.01 70 1012.6
20260503214304 52 339 0.0 0.0 0.01 0.01 0.01 70 1012.6
20260503213803 52 319 0.0 0.0 0.01 0.01 0.01 69 1012.6
20260503212804 52 319 0.0 0.0 0.01 0.01 0.01 67 1013.0
20260503212305 52 311 0.0 0.0 0.00 0.00 0.00 66 1013.1
20260503211304 54 350 0.0 0.0 0.00 0.00 0.00 63 1014.1
20260503210804 54 0 0.0 1.0 0.00 0.00 0.00 60 1013.9
20260503210304 55 0 0.0 0.0 0.00 0.00 0.00 57 1014.0
20260503205803 56 353 0.0 0.0 0.00 0.00 0.00 53 1013.9
20260503205304 57 353 0.0 17.0 0.00 0.00 0.00 47 1013.4
20260503204804 58 334 1.0 12.0 0.00 0.00 0.00 42 1013.3
20260503203804 60 344 0.0 0.0 0.00 0.00 0.00 35 1013.3
20260503203304 61 352 0.0 8.0 0.00 0.00 0.00 35 1013.0
20260503202304 61 345 0.0 0.0 0.00 0.00 0.00 33 1012.9